createdAt,value
2019-01-13T00:02:17.625Z,96876.14
2019-01-13T00:04:49.345Z,96874.80
2019-01-13T00:07:20.814Z,96871.39
2019-01-13T00:09:52.475Z,96873.08
2019-01-13T00:12:24.038Z,96879.04
2019-01-13T00:14:55.638Z,96874.38
2019-01-13T00:17:27.071Z,96869.20
2019-01-13T00:19:58.511Z,96874.09
2019-01-13T00:22:30.145Z,96868.79
2019-01-13T00:25:01.746Z,96868.41
2019-01-13T00:27:33.487Z,96864.53
2019-01-13T00:30:07.100Z,96865.55
2019-01-13T00:32:38.582Z,96870.68
2019-01-13T00:35:10.435Z,96860.13
2019-01-13T00:37:41.970Z,96855.96
2019-01-13T00:40:14.852Z,96861.17
2019-01-13T00:42:46.685Z,96856.63
2019-01-13T00:45:19.273Z,96852.44
2019-01-13T00:47:50.966Z,96861.30
2019-01-13T00:50:23.307Z,96859.88
2019-01-13T00:52:55.020Z,96863.36
2019-01-13T00:55:26.990Z,96857.10
2019-01-13T00:57:58.652Z,96850.88
2019-01-13T01:00:30.409Z,96853.02
2019-01-13T01:03:01.905Z,96850.00
2019-01-13T01:05:33.547Z,96855.03
2019-01-13T01:08:05.297Z,96849.23
2019-01-13T01:10:36.973Z,96847.72
2019-01-13T01:13:08.459Z,96846.28
2019-01-13T01:15:40.085Z,96843.30
2019-01-13T01:18:11.758Z,96836.38
2019-01-13T01:20:43.680Z,96834.28
2019-01-13T01:23:15.092Z,96833.48
2019-01-13T01:25:46.624Z,96836.75
2019-01-13T01:28:18.133Z,96822.73
2019-01-13T01:30:49.828Z,96823.23
2019-01-13T01:33:25.834Z,96826.66
2019-01-13T01:35:56.570Z,96825.30
2019-01-13T01:38:28.316Z,96823.48
2019-01-13T01:40:59.904Z,96820.16
2019-01-13T01:43:31.508Z,96824.17
2019-01-13T01:46:03.138Z,96812.91
2019-01-13T01:48:34.875Z,96814.79
2019-01-13T01:51:06.599Z,96816.09
2019-01-13T01:53:38.249Z,96817.02
2019-01-13T01:56:10.016Z,96816.52
2019-01-13T01:58:41.604Z,96807.31
2019-01-13T02:01:13.257Z,96803.20
2019-01-13T02:03:46.034Z,96807.06
2019-01-13T02:06:17.724Z,96798.11
2019-01-13T02:08:49.269Z,96800.08
2019-01-13T02:11:20.837Z,96801.09
2019-01-13T02:13:52.348Z,96800.77
2019-01-13T02:16:23.861Z,96793.99
2019-01-13T02:18:55.282Z,96794.83
2019-01-13T02:21:26.832Z,96795.72
2019-01-13T02:23:58.284Z,96794.13
2019-01-13T02:26:29.942Z,96795.34
2019-01-13T02:29:01.460Z,96789.12
2019-01-13T02:31:33.124Z,96794.59
2019-01-13T02:34:04.758Z,96794.59
2019-01-13T02:36:36.436Z,96800.44
2019-01-13T02:39:09.510Z,96800.01
2019-01-13T02:41:41.027Z,96793.16
2019-01-13T02:44:12.449Z,96794.79
2019-01-13T02:46:44.023Z,96796.69
2019-01-13T02:49:15.603Z,96789.45
2019-01-13T02:51:47.249Z,96790.02
2019-01-13T02:54:18.821Z,96784.09
2019-01-13T02:56:50.392Z,96784.09
2019-01-13T02:59:21.983Z,96793.33
2019-01-13T03:01:53.526Z,96788.79
2019-01-13T03:04:25.179Z,96790.39
2019-01-13T03:06:57.158Z,96791.14
2019-01-13T03:09:28.735Z,96793.52
2019-01-13T03:12:00.162Z,96788.95
2019-01-13T03:14:31.812Z,96792.81
2019-01-13T03:17:03.475Z,96799.04
2019-01-13T03:19:36.423Z,96796.75
2019-01-13T03:22:08.025Z,96790.35
2019-01-13T03:24:39.586Z,96786.42
2019-01-13T03:27:11.163Z,96783.30
2019-01-13T03:29:42.748Z,96784.37
2019-01-13T03:32:14.262Z,96782.97
2019-01-13T03:34:45.924Z,96776.70
2019-01-13T03:37:17.494Z,96778.44
2019-01-13T03:39:48.951Z,96776.56
2019-01-13T03:42:20.433Z,96778.02
2019-01-13T03:44:53.189Z,96770.91
2019-01-13T03:47:24.748Z,96766.61
2019-01-13T03:49:56.338Z,96772.50
2019-01-13T03:52:28.023Z,96776.28
2019-01-13T03:54:59.532Z,96773.16
2019-01-13T03:57:31.093Z,96778.15
2019-01-13T04:00:02.648Z,96781.00
2019-01-13T04:02:34.300Z,96779.19
2019-01-13T04:05:06.746Z,96788.95
2019-01-13T04:07:38.216Z,96784.37
2019-01-13T04:10:10.726Z,96789.23
2019-01-13T04:12:42.326Z,96788.95
2019-01-13T04:15:47.874Z,96804.59
2019-01-13T04:18:19.402Z,96800.09
2019-01-13T04:20:51.004Z,96794.79
2019-01-13T04:23:23.683Z,96794.78
2019-01-13T04:25:55.328Z,96802.59
2019-01-13T04:28:26.887Z,96801.88
2019-01-13T04:30:58.496Z,96796.47
2019-01-13T04:33:30.117Z,96800.54
2019-01-13T04:36:01.885Z,96789.59
2019-01-13T04:38:33.604Z,96796.74
2019-01-13T04:41:05.310Z,96800.39
2019-01-13T04:43:36.948Z,96804.64
2019-01-13T04:46:08.524Z,96806.42
2019-01-13T04:48:39.929Z,96809.80
2019-01-13T04:51:11.578Z,96804.36
2019-01-13T04:53:43.131Z,96801.19
2019-01-13T04:56:14.666Z,96804.17
2019-01-13T04:58:46.328Z,96805.36
2019-01-13T05:01:17.864Z,96798.67
2019-01-13T05:03:49.678Z,96806.95
2019-01-13T05:06:21.219Z,96807.83
2019-01-13T05:08:52.602Z,96801.57
2019-01-13T05:11:25.460Z,96809.52
2019-01-13T05:13:57.005Z,96807.09
2019-01-13T05:16:28.621Z,96814.52
2019-01-13T05:19:00.216Z,96811.56
2019-01-13T05:21:31.973Z,96808.76
2019-01-13T05:24:03.647Z,96798.81
2019-01-13T05:26:35.371Z,96805.44
2019-01-13T05:29:07.158Z,96800.53
2019-01-13T05:31:42.176Z,96804.89
2019-01-13T05:34:11.993Z,96806.98
2019-01-13T05:36:43.711Z,96798.57
2019-01-13T05:39:15.413Z,96801.38
2019-01-13T05:41:47.154Z,96802.97
2019-01-13T05:44:18.656Z,96797.86
2019-01-13T05:46:50.229Z,96791.23
2019-01-13T05:49:21.709Z,96794.45
2019-01-13T05:51:53.572Z,96794.79
2019-01-13T05:54:25.217Z,96794.09
2019-01-13T05:56:56.921Z,96799.98
2019-01-13T05:59:28.506Z,96800.86
2019-01-13T06:02:00.196Z,96797.86
2019-01-13T06:04:31.684Z,96791.47
2019-01-13T06:07:03.288Z,96788.80
2019-01-13T06:09:34.976Z,96796.79
2019-01-13T06:12:07.043Z,96796.42
2019-01-13T06:14:38.779Z,96805.16
2019-01-13T06:17:10.580Z,96800.05
2019-01-13T06:19:42.412Z,96798.27
2019-01-13T06:22:14.311Z,96794.77
2019-01-13T06:24:45.998Z,96814.77
2019-01-13T06:27:17.644Z,96818.02
2019-01-13T06:29:49.411Z,96819.23
2019-01-13T06:32:21.303Z,96817.61
2019-01-13T06:34:52.844Z,96817.46
2019-01-13T06:37:24.495Z,96822.83
2019-01-13T06:39:56.368Z,96827.78
2019-01-13T06:42:28.062Z,96826.41
2019-01-13T06:44:59.913Z,96825.73
2019-01-13T06:47:31.679Z,96827.47
2019-01-13T06:50:03.396Z,96830.34
2019-01-13T06:52:35.279Z,96824.83
2019-01-13T06:55:07.408Z,96833.45
2019-01-13T06:57:39.220Z,96832.80
2019-01-13T07:00:24.192Z,96833.64
2019-01-13T07:02:55.941Z,96843.15
2019-01-13T07:05:29.311Z,96842.77
2019-01-13T07:08:00.965Z,96845.46
2019-01-13T07:10:32.771Z,96837.15
2019-01-13T07:13:04.692Z,96842.58
2019-01-13T07:15:36.370Z,96838.09
2019-01-13T07:18:08.017Z,96841.11
2019-01-13T07:20:39.825Z,96845.13
2019-01-13T07:23:11.631Z,96846.72
2019-01-13T07:25:43.292Z,96842.73
2019-01-13T07:28:15.452Z,96849.70
2019-01-13T07:30:47.522Z,96846.75
2019-01-13T07:33:19.681Z,96843.81
2019-01-13T07:35:51.813Z,96842.52
2019-01-13T07:38:24.589Z,96835.50
2019-01-13T07:40:57.104Z,96833.97
2019-01-13T07:43:29.843Z,96837.83
2019-01-13T07:46:03.533Z,96838.45
2019-01-13T07:48:36.494Z,96842.17
2019-01-13T07:51:09.134Z,96831.58
2019-01-13T07:53:41.912Z,96828.52
2019-01-13T07:56:14.551Z,96831.57
2019-01-13T07:58:46.964Z,96830.56
2019-01-13T08:01:19.343Z,96827.19
2019-01-13T08:03:53.481Z,96828.33
2019-01-13T08:06:25.773Z,96825.83
2019-01-13T08:08:58.342Z,96826.63
2019-01-13T08:11:31.864Z,96813.23
2019-01-13T08:14:04.703Z,96817.30
2019-01-13T08:16:37.772Z,96820.70
2019-01-13T08:19:10.411Z,96809.54
2019-01-13T08:21:44.854Z,96808.55
2019-01-13T08:24:17.492Z,96816.17
2019-01-13T08:26:50.582Z,96821.78
2019-01-13T08:29:23.144Z,96819.06
2019-01-13T08:31:55.902Z,96821.25
2019-01-13T08:34:28.403Z,96820.41
2019-01-13T08:37:00.754Z,96822.17
2019-01-13T08:39:34.311Z,96821.80
2019-01-13T08:42:06.870Z,96821.82
2019-01-13T08:44:39.544Z,96819.58
2019-01-13T08:47:11.941Z,96821.03
2019-01-13T08:49:44.236Z,96820.95
2019-01-13T08:52:16.461Z,96804.84
2019-01-13T08:54:48.923Z,96813.17
2019-01-13T08:57:21.224Z,96808.34
2019-01-13T08:59:53.741Z,96807.75
2019-01-13T09:02:32.217Z,96796.59
2019-01-13T09:05:00.281Z,96797.20
2019-01-13T09:07:32.513Z,96792.98
2019-01-13T09:10:05.821Z,96797.27
2019-01-13T09:12:38.041Z,96789.81
2019-01-13T09:15:12.932Z,96784.64
2019-01-13T09:17:45.413Z,96785.51
2019-01-13T09:20:21.082Z,96781.40
2019-01-13T09:22:53.752Z,96773.83
2019-01-13T09:25:26.432Z,96771.94
2019-01-13T09:27:58.692Z,96771.64
2019-01-13T09:30:31.844Z,96764.91
2019-01-13T09:33:05.533Z,96763.70
2019-01-13T09:35:38.313Z,96750.45
2019-01-13T09:38:10.451Z,96752.97
2019-01-13T09:40:43.078Z,96750.31
2019-01-13T09:43:15.465Z,96753.22
2019-01-13T09:45:47.803Z,96751.24
2019-01-13T09:48:19.921Z,96750.19
2019-01-13T09:50:52.473Z,96745.20
2019-01-13T09:53:25.342Z,96739.19
2019-01-13T09:55:57.801Z,96732.66
2019-01-13T09:58:30.311Z,96729.69
2019-01-13T10:01:02.524Z,96727.97
2019-01-13T10:03:34.873Z,96721.61
2019-01-13T10:06:14.522Z,96716.77
2019-01-13T10:08:48.910Z,96716.80
2019-01-13T10:11:21.712Z,96717.16
2019-01-13T10:13:55.665Z,96718.45
2019-01-13T10:16:28.281Z,96711.88
2019-01-13T10:19:02.511Z,96705.81
2019-01-13T10:21:35.255Z,96694.00
2019-01-13T10:24:09.062Z,96690.16
2019-01-13T10:26:41.293Z,96693.01
2019-01-13T10:29:13.593Z,96684.92
2019-01-13T10:31:45.834Z,96681.58
2019-01-13T10:34:17.862Z,96673.61
2019-01-13T10:36:50.537Z,96674.71
2019-01-13T10:39:23.267Z,96670.91
2019-01-13T10:41:56.978Z,96664.27
2019-01-13T10:44:29.590Z,96664.00
2019-01-13T10:47:02.377Z,96669.48
2019-01-13T10:49:35.129Z,96672.27
2019-01-13T10:52:07.788Z,96668.91
2019-01-13T10:54:40.287Z,96668.09
2019-01-13T10:57:12.908Z,96664.08
2019-01-13T10:59:45.838Z,96661.89
2019-01-13T11:02:18.738Z,96649.89
2019-01-13T11:04:51.318Z,96651.05
2019-01-13T11:07:25.130Z,96651.88
2019-01-13T11:09:57.667Z,96644.83
2019-01-13T11:12:30.197Z,96639.66
2019-01-13T11:15:02.711Z,96635.66
2019-01-13T11:17:35.538Z,96635.62
2019-01-13T11:20:11.700Z,96631.96
2019-01-13T11:22:44.588Z,96633.28
2019-01-13T11:25:17.537Z,96624.98
2019-01-13T11:27:50.542Z,96625.39
2019-01-13T11:30:24.853Z,96622.67
2019-01-13T11:32:57.648Z,96620.70
2019-01-13T11:35:30.148Z,96620.70
2019-01-13T11:38:02.697Z,96625.11
2019-01-13T11:40:35.422Z,96626.95
2019-01-13T11:43:10.359Z,96624.80
2019-01-13T11:45:44.299Z,96615.69
2019-01-13T11:48:17.617Z,96611.55
2019-01-13T11:50:50.038Z,96599.19
2019-01-13T11:53:22.257Z,96602.00
2019-01-13T11:55:55.260Z,96598.45
2019-01-13T11:58:27.928Z,96597.50
2019-01-13T12:01:00.878Z,96597.90
2019-01-13T12:03:33.238Z,96583.85
2019-01-13T12:06:06.087Z,96583.64
2019-01-13T12:08:38.847Z,96579.74
2019-01-13T12:11:11.348Z,96571.87
2019-01-13T12:13:45.197Z,96575.61
2019-01-13T12:16:17.999Z,96576.74
2019-01-13T12:18:50.637Z,96580.04
2019-01-13T12:21:23.420Z,96572.78
2019-01-13T12:23:56.047Z,96566.68
2019-01-13T12:26:28.477Z,96571.78
2019-01-13T12:29:01.938Z,96573.89
2019-01-13T12:31:34.938Z,96567.67
2019-01-13T12:34:07.696Z,96574.50
2019-01-13T12:36:41.428Z,96567.38
2019-01-13T12:39:15.619Z,96563.36
2019-01-13T12:41:48.037Z,96567.21
2019-01-13T12:44:20.411Z,96568.48
2019-01-13T12:46:54.161Z,96564.98
2019-01-13T12:49:26.579Z,96564.31
2019-01-13T12:51:59.147Z,96558.81
2019-01-13T12:54:31.569Z,96558.69
2019-01-13T12:57:04.947Z,96557.10
2019-01-13T12:59:37.338Z,96560.84
2019-01-13T13:02:09.648Z,96555.75
2019-01-13T13:04:41.938Z,96557.95
2019-01-13T13:07:14.227Z,96548.64
2019-01-13T13:09:46.547Z,96554.48
2019-01-13T13:12:20.447Z,96549.33
2019-01-13T13:14:53.767Z,96532.02
2019-01-13T13:17:26.319Z,96530.22
2019-01-13T13:20:00.540Z,96530.22
2019-01-13T13:22:33.440Z,96519.28
2019-01-13T13:25:06.558Z,96518.80
2019-01-13T13:27:38.979Z,96516.12
2019-01-13T13:30:15.989Z,96513.80
2019-01-13T13:32:49.511Z,96507.20
2019-01-13T13:35:22.156Z,96500.08
2019-01-13T13:37:54.727Z,96506.28
2019-01-13T13:40:27.818Z,96497.89
2019-01-13T13:43:00.410Z,96503.30
2019-01-13T13:45:33.010Z,96502.55
2019-01-13T13:48:05.819Z,96502.02
2019-01-13T13:50:38.199Z,96504.88
2019-01-13T13:53:10.330Z,96501.36
2019-01-13T13:55:42.772Z,96495.34
2019-01-13T13:58:15.007Z,96501.27
2019-01-13T14:00:47.166Z,96506.02
2019-01-13T14:03:19.377Z,96504.21
2019-01-13T14:05:51.549Z,96510.41
2019-01-13T14:08:23.862Z,96500.74
2019-01-13T14:10:55.978Z,96505.09
2019-01-13T14:13:28.177Z,96508.77
2019-01-13T14:16:00.469Z,96503.15
2019-01-13T14:18:32.889Z,96496.64
2019-01-13T14:21:05.499Z,96496.53
2019-01-13T14:23:37.697Z,96491.36
2019-01-13T14:26:09.808Z,96490.17
2019-01-13T14:28:42.157Z,96480.28
2019-01-13T14:31:14.407Z,96481.98
2019-01-13T14:33:52.669Z,96483.59
2019-01-13T14:36:20.589Z,96485.26
2019-01-13T14:38:52.959Z,96475.60
2019-01-13T14:41:25.169Z,96476.05
2019-01-13T14:43:57.518Z,96474.85
2019-01-13T14:46:29.958Z,96477.00
2019-01-13T14:49:02.261Z,96478.48
2019-01-13T14:51:34.669Z,96472.37
2019-01-13T14:54:07.192Z,96470.91
2019-01-13T14:56:39.481Z,96474.96
2019-01-13T14:59:11.857Z,96477.48
2019-01-13T15:01:44.011Z,96475.88
2019-01-13T15:04:17.289Z,96470.08
2019-01-13T15:06:49.657Z,96468.78
2019-01-13T15:09:22.066Z,96463.02
2019-01-13T15:11:54.437Z,96465.73
2019-01-13T15:14:26.676Z,96464.89
2019-01-13T15:16:58.828Z,96464.45
2019-01-13T15:19:31.070Z,96460.92
2019-01-13T15:22:03.499Z,96464.30
2019-01-13T15:24:35.871Z,96454.97
2019-01-13T15:27:08.280Z,96454.89
2019-01-13T15:29:40.638Z,96450.13
2019-01-13T15:32:12.996Z,96455.20
2019-01-13T15:34:45.256Z,96448.23
2019-01-13T15:37:17.316Z,96448.59
2019-01-13T15:39:49.599Z,96443.78
2019-01-13T15:42:21.762Z,96444.02
2019-01-13T15:44:54.086Z,96440.53
2019-01-13T15:47:26.439Z,96438.70
2019-01-13T15:49:59.706Z,96437.70
2019-01-13T15:52:32.068Z,96442.80
2019-01-13T15:55:04.279Z,96442.27
2019-01-13T15:57:36.428Z,96440.61
2019-01-13T16:00:12.486Z,96443.63
2019-01-13T16:02:44.576Z,96436.92
2019-01-13T16:05:17.034Z,96441.25
2019-01-13T16:07:49.287Z,96438.62
2019-01-13T16:10:23.308Z,96434.02
2019-01-13T16:12:56.134Z,96436.13
2019-01-13T16:15:34.153Z,96428.06
2019-01-13T16:18:03.209Z,96431.32
2019-01-13T16:20:37.719Z,96429.41
2019-01-13T16:23:09.857Z,96429.97
2019-01-13T16:25:42.130Z,96431.67
2019-01-13T16:28:14.309Z,96429.09
2019-01-13T16:30:46.549Z,96425.44
2019-01-13T16:33:19.813Z,96426.03
2019-01-13T16:35:52.480Z,96428.58
2019-01-13T16:38:24.598Z,96430.64
2019-01-13T16:40:58.088Z,96426.30
2019-01-13T16:43:30.208Z,96423.88
2019-01-13T16:46:02.447Z,96423.40
2019-01-13T16:48:35.807Z,96420.27
2019-01-13T16:51:07.999Z,96416.85
2019-01-13T16:53:40.998Z,96409.16
2019-01-13T16:56:13.307Z,96414.36
2019-01-13T16:58:45.338Z,96411.19
2019-01-13T17:01:17.467Z,96402.53
2019-01-13T17:03:49.596Z,96399.99
2019-01-13T17:06:21.809Z,96402.45
2019-01-13T17:08:54.098Z,96402.38
2019-01-13T17:11:26.177Z,96395.82
2019-01-13T17:13:58.337Z,96396.89
2019-01-13T17:16:30.579Z,96397.53
2019-01-13T17:19:02.868Z,96399.63
2019-01-13T17:21:35.178Z,96396.30
2019-01-13T17:24:07.698Z,96395.03
2019-01-13T17:26:39.918Z,96393.41
2019-01-13T17:29:12.329Z,96387.48
2019-01-13T17:31:44.518Z,96392.41
2019-01-13T17:34:16.509Z,96397.48
2019-01-13T17:36:48.658Z,96395.38
2019-01-13T17:39:20.779Z,96397.48
2019-01-13T17:41:52.963Z,96383.52
2019-01-13T17:44:25.138Z,96383.13
2019-01-13T17:46:57.327Z,96381.86
2019-01-13T17:49:29.619Z,96380.02
2019-01-13T17:52:01.850Z,96383.55
2019-01-13T17:54:34.100Z,96383.10
2019-01-13T17:57:06.338Z,96375.83
2019-01-13T17:59:38.628Z,96375.17
2019-01-13T18:02:10.859Z,96379.10
2019-01-13T18:04:43.467Z,96365.55
2019-01-13T18:07:16.120Z,96369.87
2019-01-13T18:09:48.117Z,96365.30
2019-01-13T18:12:20.362Z,96365.94
2019-01-13T18:14:52.440Z,96363.27
2019-01-13T18:17:24.727Z,96357.06
2019-01-13T18:19:56.981Z,96358.20
2019-01-13T18:22:29.988Z,96357.52
2019-01-13T18:25:02.210Z,96355.24
2019-01-13T18:27:34.408Z,96361.00
2019-01-13T18:30:09.727Z,96351.22
2019-01-13T18:32:41.997Z,96352.70
2019-01-13T18:35:16.387Z,96355.42
2019-01-13T18:37:49.081Z,96360.62
2019-01-13T18:40:23.321Z,96364.06
2019-01-13T18:42:56.832Z,96363.91
2019-01-13T18:46:39.518Z,96350.11
2019-01-13T18:50:17.798Z,96348.25
2019-01-13T18:53:54.238Z,96347.75
2019-01-13T18:56:28.378Z,96345.84
2019-01-13T19:00:00.959Z,96343.98
2019-01-13T19:02:33.573Z,96346.74
2019-01-13T19:06:12.448Z,96348.23
2019-01-13T19:09:46.686Z,96343.13
2019-01-13T19:13:29.397Z,96343.67
2019-01-13T19:17:02.023Z,96346.53
2019-01-13T19:20:11.618Z,96342.55
2019-01-13T19:23:43.037Z,96335.70
2019-01-13T19:26:22.457Z,96339.25
2019-01-13T19:30:06.403Z,96332.66
2019-01-13T19:32:41.428Z,96338.23
2019-01-13T19:36:16.484Z,96337.16
2019-01-13T19:39:19.028Z,96333.23
2019-01-13T19:42:08.151Z,96336.09
2019-01-13T19:44:40.463Z,96321.82
2019-01-13T19:47:12.352Z,96327.14
2019-01-13T19:49:45.468Z,96327.14
2019-01-13T19:52:17.668Z,96329.05
2019-01-13T19:54:50.087Z,96325.25
2019-01-13T19:57:22.527Z,96320.94
2019-01-13T19:59:54.549Z,96316.73
2019-01-13T20:02:26.622Z,96315.39
2019-01-13T20:04:58.451Z,96306.66
2019-01-13T20:07:30.480Z,96304.45
2019-01-13T20:10:02.493Z,96302.84
2019-01-13T20:12:34.730Z,96301.77
2019-01-13T20:15:11.457Z,96294.91
2019-01-13T20:17:43.344Z,96296.84
2019-01-13T20:20:18.148Z,96284.65
2019-01-13T20:23:05.859Z,96285.30
2019-01-13T20:26:12.039Z,96277.04
2019-01-13T20:29:36.665Z,96275.02
2019-01-13T20:32:17.389Z,96265.70
2019-01-13T20:34:57.265Z,96262.83
2019-01-13T20:37:31.934Z,96258.39
2019-01-13T20:40:04.197Z,96252.05
2019-01-13T20:42:36.117Z,96246.15
2019-01-13T20:45:12.904Z,96246.39
2019-01-13T20:47:44.829Z,96249.08
2019-01-13T20:50:16.801Z,96237.83
2019-01-13T20:52:48.607Z,96239.81
2019-01-13T20:55:21.839Z,96234.50
2019-01-13T20:57:53.877Z,96235.30
2019-01-13T21:00:30.189Z,96223.08
2019-01-13T21:03:02.821Z,96233.70
2019-01-13T21:05:35.862Z,96232.48
2019-01-13T21:08:08.656Z,96235.49
2019-01-13T21:10:40.359Z,96225.91
2019-01-13T21:13:12.405Z,96224.20
2019-01-13T21:15:44.158Z,96218.17
2019-01-13T21:18:15.999Z,96213.73
2019-01-13T21:20:47.704Z,96213.34
2019-01-13T21:23:19.409Z,96208.90
2019-01-13T21:25:51.250Z,96208.10
2019-01-13T21:28:22.954Z,96199.34
2019-01-13T21:30:54.630Z,96193.52
2019-01-13T21:33:26.201Z,96188.05
2019-01-13T21:35:58.034Z,96180.16
2019-01-13T21:38:29.696Z,96171.80
2019-01-13T21:41:01.581Z,96174.45
2019-01-13T21:43:33.355Z,96167.23
2019-01-13T21:46:05.265Z,96166.96
2019-01-13T21:48:38.172Z,96166.64
2019-01-13T21:51:10.006Z,96168.42
2019-01-13T21:53:43.189Z,96165.97
2019-01-13T21:56:16.451Z,96157.41
2019-01-13T21:58:48.230Z,96159.51
2019-01-13T22:01:19.880Z,96151.83
2019-01-13T22:03:51.321Z,96145.92
2019-01-13T22:06:23.010Z,96145.67
2019-01-13T22:08:56.195Z,96138.55
2019-01-13T22:11:28.202Z,96137.48
2019-01-13T22:14:00.122Z,96126.38
2019-01-13T22:16:31.893Z,96122.81
2019-01-13T22:19:03.513Z,96115.72
2019-01-13T22:21:34.956Z,96116.00
2019-01-13T22:24:06.790Z,96107.36
2019-01-13T22:26:38.446Z,96102.16
2019-01-13T22:29:10.021Z,96094.35
2019-01-13T22:31:41.900Z,96097.25
2019-01-13T22:34:13.639Z,96093.69
2019-01-13T22:36:45.200Z,96088.27
2019-01-13T22:39:16.668Z,96088.11
2019-01-13T22:41:48.343Z,96084.41
2019-01-13T22:44:19.813Z,96084.10
2019-01-13T22:46:51.441Z,96074.47
2019-01-13T22:49:23.139Z,96072.09
2019-01-13T22:51:54.922Z,96071.08
2019-01-13T22:54:26.684Z,96068.62
2019-01-13T22:56:58.453Z,96063.11
2019-01-13T22:59:29.936Z,96059.64
2019-01-13T23:02:01.707Z,96060.03
2019-01-13T23:04:33.769Z,96055.84
2019-01-13T23:07:05.482Z,96050.02
2019-01-13T23:09:37.266Z,96051.52
2019-01-13T23:12:09.041Z,96047.59
2019-01-13T23:14:40.801Z,96052.14
2019-01-13T23:17:12.523Z,96045.44
2019-01-13T23:19:44.447Z,96037.88
2019-01-13T23:22:16.302Z,96034.03
2019-01-13T23:24:47.964Z,96028.77
2019-01-13T23:27:19.783Z,96029.97
2019-01-13T23:29:51.946Z,96025.28
2019-01-13T23:32:23.645Z,96021.77
2019-01-13T23:34:55.547Z,96018.80
2019-01-13T23:37:27.160Z,96019.98
2019-01-13T23:39:58.914Z,96012.92
2019-01-13T23:42:30.661Z,96010.38
2019-01-13T23:45:02.469Z,96009.14
2019-01-13T23:47:34.302Z,96004.06
2019-01-13T23:50:07.679Z,96002.72
2019-01-13T23:52:39.349Z,96002.50
2019-01-13T23:55:11.302Z,95998.03
2019-01-13T23:57:44.085Z,95993.53
